Time;durP1;ratioP1;P1;durP2;ratioP2;P2;SDS_P1;SDS_P2;PMS_P1;PMS_P2;Temp;Humidity;BMP_temperature;BMP_pressure;BME280_temperature;BME280_humidity;BME280_pressure;Samples;Min_cycle;Max_cycle;Signal;HPM_P1;HPM_P2
2021/12/05 00:24:09;;;;;;;63.03;41.35;;;5.00;99.90;;;;;;5051434;28;20060;-70
2021/12/05 00:26:37;;;;;;;80.72;51.97;;;5.00;99.90;;;;;;5037351;28;20064;-67
2021/12/05 00:29:28;;;;;;;193.90;124.60;;;5.00;99.90;;;;;;5032018;28;20424;-69
2021/12/05 00:46:17;;;;;;;5.25;2.05;;;5.00;99.90;;;;;;5052622;28;20139;-69
2021/12/05 00:48:27;;;;;;;54.08;40.20;;;5.00;99.90;;;;;;5030535;28;20127;-67
2021/12/05 00:53:58;;;;;;;5.95;2.72;;;5.10;99.90;;;;;;5051142;28;20484;-69
2021/12/05 01:01:43;;;;;;;;;;;5.00;99.90;;;;;;5053050;28;20124;-69
2021/12/05 01:15:03;;;;;;;19.95;9.90;;;5.00;99.90;;;;;;5051342;28;20176;-69
2021/12/05 01:17:42;;;;;;;145.88;94.32;;;5.00;99.90;;;;;;5035343;28;20567;-67
2021/12/05 01:20:13;;;;;;;14.60;7.65;;;5.10;99.90;;;;;;5035131;28;20056;-68
2021/12/05 01:22:45;;;;;;;7.68;3.67;;;5.10;99.90;;;;;;5050819;28;20048;-69
2021/12/05 01:27:58;;;;;;;8.18;2.30;;;5.10;99.90;;;;;;5051082;28;20053;-68
2021/12/05 01:39:03;;;;;;;30.30;17.67;;;5.20;99.90;;;;;;5052022;28;20052;-71
2021/12/05 01:57:51;;;;;;;6.15;2.83;;;5.00;99.90;;;;;;5050562;28;20092;-71
2021/12/05 02:36:28;;;;;;;29.92;16.45;;;5.00;99.90;;;;;;5049957;28;20420;-70
2021/12/05 02:39:17;;;;;;;24.73;16.15;;;5.10;99.90;;;;;;5049757;28;20120;-72
2021/12/05 02:41:47;;;;;;;27.75;12.02;;;5.10;99.90;;;;;;5035937;28;20045;-70
2021/12/05 02:47:00;;;;;;;8.40;1.55;;;5.10;99.90;;;;;;5049638;28;20255;-69
2021/12/05 02:49:28;;;;;;;3.50;1.40;;;5.10;99.90;;;;;;5050886;28;20136;-69
2021/12/05 02:51:57;;;;;;;3.20;1.75;;;5.10;99.90;;;;;;5047123;28;20049;-70
2021/12/05 02:54:25;;;;;;;;;;;5.10;99.90;;;;;;5049572;28;20072;-70
2021/12/05 02:56:52;;;;;;;2.92;1.38;;;5.10;99.90;;;;;;5049092;28;19928;-70
2021/12/05 02:59:42;;;;;;;3.20;1.30;;;5.10;99.90;;;;;;5048754;28;20416;-70
2021/12/05 03:02:12;;;;;;;6.95;1.20;;;5.10;99.90;;;;;;5049632;28;20068;-70
2021/12/05 03:04:46;;;;;;;3.15;2.05;;;5.10;99.90;;;;;;5048540;28;20139;-71
2021/12/05 03:07:14;;;;;;;166.68;100.80;;;5.10;99.90;;;;;;5032398;28;20045;-71
2021/12/05 03:09:42;;;;;;;69.32;48.97;;;5.20;99.90;;;;;;5032683;28;20099;-68
2021/12/05 03:12:11;;;;;;;6.47;3.78;;;5.20;99.90;;;;;;5032732;28;20049;-67
2021/12/05 03:14:38;;;;;;;2.42;1.45;;;5.20;99.90;;;;;;5048979;28;20129;-68
2021/12/05 03:17:06;;;;;;;4.05;1.17;;;5.20;99.90;;;;;;5048866;28;20408;-68
2021/12/05 03:19:33;;;;;;;3.35;1.30;;;5.20;99.90;;;;;;5032379;28;20071;-67
2021/12/05 03:21:59;;;;;;;2.42;1.30;;;5.20;99.90;;;;;;5048741;28;20048;-68
2021/12/05 03:24:27;;;;;;;5.28;1.42;;;5.20;99.90;;;;;;5050130;28;20056;-69
2021/12/05 03:26:54;;;;;;;5.93;1.48;;;5.20;99.90;;;;;;5050061;28;20413;-68
2021/12/05 03:29:21;;;;;;;3.85;1.40;;;5.20;99.90;;;;;;5048083;28;20052;-68
2021/12/05 03:31:49;;;;;;;1.77;1.20;;;5.10;99.90;;;;;;5016139;28;20052;-69
2021/12/05 03:34:17;;;;;;;14.10;8.55;;;5.10;99.90;;;;;;5032429;28;20382;-68
2021/12/05 03:36:46;;;;;;;52.35;37.97;;;5.20;99.90;;;;;;5032371;28;20048;-69
2021/12/05 03:39:13;;;;;;;160.43;115.15;;;5.30;99.90;;;;;;5032268;28;20060;-74
2021/12/05 03:41:41;;;;;;;11.52;6.88;;;5.40;99.90;;;;;;5049422;28;20052;-73
2021/12/05 03:44:10;;;;;;;2.55;1.63;;;5.30;99.90;;;;;;5048674;28;20059;-73
2021/12/05 03:46:37;;;;;;;1.88;1.30;;;5.30;99.90;;;;;;5032291;28;20148;-73
2021/12/05 03:49:07;;;;;;;1.90;1.30;;;5.30;99.90;;;;;;5032014;28;20359;-72
2021/12/05 03:51:38;;;;;;;2.63;1.20;;;5.20;99.90;;;;;;5032490;28;20053;-74
2021/12/05 03:54:06;;;;;;;1.75;1.40;;;5.20;99.90;;;;;;5049821;28;20040;-63
2021/12/05 03:56:34;;;;;;;2.80;1.17;;;5.20;99.90;;;;;;5031640;28;20121;-64
2021/12/05 03:59:02;;;;;;;29.70;21.33;;;5.20;99.90;;;;;;5050016;28;20049;-62
2021/12/05 04:01:29;;;;;;;129.35;92.05;;;5.20;99.90;;;;;;5052964;28;20481;-73
2021/12/05 04:03:57;;;;;;;8.32;5.38;;;5.20;99.90;;;;;;5053294;28;20045;-72
2021/12/05 04:06:25;;;;;;;2.78;1.20;;;5.20;99.90;;;;;;5054083;28;20041;-72
2021/12/05 04:08:52;;;;;;;2.92;1.50;;;5.20;99.90;;;;;;5052552;28;20045;-73
2021/12/05 04:11:25;;;;;;;1.30;1.10;;;5.20;99.90;;;;;;5048650;28;20048;-72
2021/12/05 04:13:52;;;;;;;4.13;1.30;;;5.20;99.90;;;;;;5036007;28;20044;-71
2021/12/05 04:16:19;;;;;;;2.42;1.20;;;5.20;99.90;;;;;;5053420;28;20048;-71
2021/12/05 04:18:47;;;;;;;2.15;1.20;;;5.20;99.90;;;;;;5019152;28;20045;-72
2021/12/05 04:21:15;;;;;;;1.73;1.15;;;5.20;99.90;;;;;;5052822;28;20117;-72
2021/12/05 04:23:42;;;;;;;2.10;1.40;;;5.20;99.90;;;;;;5053366;28;20060;-71
2021/12/05 04:26:09;;;;;;;5.35;2.60;;;5.20;99.90;;;;;;5052168;28;20044;-72
2021/12/05 04:28:38;;;;;;;1.52;1.30;;;5.20;99.90;;;;;;5053154;28;20055;-72
2021/12/05 04:31:08;;;;;;;3.45;1.27;;;5.10;99.90;;;;;;5041723;28;20049;-73
2021/12/05 04:33:36;;;;;;;1.58;1.30;;;5.20;99.90;;;;;;5071981;28;20091;-72
2021/12/05 04:36:05;;;;;;;1.80;1.10;;;5.20;99.90;;;;;;5071932;28;20056;-72
2021/12/05 04:38:32;;;;;;;2.90;1.30;;;5.20;99.90;;;;;;5072432;28;20087;-72
2021/12/05 04:40:59;;;;;;;1.80;1.20;;;5.20;99.90;;;;;;5056041;28;20399;-72
2021/12/05 04:43:26;;;;;;;1.90;1.40;;;5.20;99.90;;;;;;5072405;28;20055;-72
2021/12/05 04:45:54;;;;;;;2.40;1.40;;;5.20;99.90;;;;;;5071635;28;20052;-72
2021/12/05 04:48:21;;;;;;;4.15;2.10;;;5.20;99.90;;;;;;5053435;28;20067;-72
2021/12/05 04:50:48;;;;;;;1.90;1.10;;;5.20;99.90;;;;;;5054940;28;20053;-72
2021/12/05 04:53:15;;;;;;;2.97;1.33;;;5.20;99.90;;;;;;5049831;28;20059;-72
2021/12/05 04:55:42;;;;;;;4.78;1.52;;;5.10;99.90;;;;;;5051603;28;20049;-72
2021/12/05 04:58:09;;;;;;;1.55;1.20;;;5.10;99.90;;;;;;5052582;28;20049;-71
2021/12/05 05:00:42;;;;;;;2.95;1.40;;;5.10;99.90;;;;;;5037036;28;20060;-72
2021/12/05 05:03:09;;;;;;;3.60;1.80;;;5.10;99.90;;;;;;5061108;28;20113;-71
2021/12/05 05:05:41;;;;;;;1.83;1.50;;;5.10;99.90;;;;;;5035200;28;20055;-71
2021/12/05 05:08:08;;;;;;;2.58;1.60;;;5.10;99.90;;;;;;5051266;28;20049;-71
2021/12/05 05:10:35;;;;;;;2.40;1.65;;;5.10;99.90;;;;;;5035108;28;20076;-71
2021/12/05 05:13:02;;;;;;;2.50;1.40;;;5.10;99.90;;;;;;5052709;28;20089;-71
2021/12/05 05:15:31;;;;;;;3.72;2.45;;;5.10;99.90;;;;;;5051855;28;20041;-71
2021/12/05 05:17:59;;;;;;;2.60;1.50;;;5.10;99.90;;;;;;5051176;28;20045;-71
2021/12/05 05:44:35;;;;;;;1.88;1.33;;;5.20;99.90;;;;;;5051346;28;20045;-72
2021/12/05 05:47:28;;;;;;;1.67;1.35;;;5.20;99.90;;;;;;5049644;28;20068;-73
2021/12/05 05:50:01;;;;;;;2.83;1.50;;;5.20;99.90;;;;;;5049085;28;20049;-73
2021/12/05 05:52:29;;;;;;;3.53;1.73;;;5.20;99.90;;;;;;5049994;28;20060;-73
2021/12/05 05:54:58;;;;;;;2.38;1.50;;;5.20;99.90;;;;;;5030762;28;20052;-72
2021/12/05 06:00:09;;;;;;;3.33;1.38;;;5.20;99.90;;;;;;5051668;28;20049;-73
2021/12/05 06:05:21;;;;;;;2.22;1.40;;;5.20;99.90;;;;;;5043212;28;20485;-74
2021/12/05 06:07:48;;;;;;;3.95;1.50;;;5.20;99.90;;;;;;5048653;28;20049;-74
2021/12/05 06:10:18;;;;;;;5.20;1.50;;;5.20;99.90;;;;;;5049989;28;20097;-73
2021/12/05 06:12:45;;;;;;;5.05;1.67;;;5.20;99.90;;;;;;5033831;28;20086;-74
2021/12/05 06:15:16;;;;;;;4.25;1.95;;;5.20;99.90;;;;;;5030271;28;20465;-72
2021/12/05 06:17:44;;;;;;;2.90;1.60;;;5.20;99.90;;;;;;5047769;28;20045;-72
2021/12/05 06:20:15;;;;;;;4.38;1.50;;;5.20;99.90;;;;;;5049653;28;20140;-73
2021/12/05 06:22:45;;;;;;;3.47;2.75;;;5.20;99.90;;;;;;5046276;28;20108;-72
2021/12/05 06:25:18;;;;;;;3.38;1.65;;;5.20;99.90;;;;;;5047189;28;20065;-72
2021/12/05 06:27:46;;;;;;;2.80;1.60;;;5.20;99.90;;;;;;5048086;28;20480;-72
2021/12/05 06:30:18;;;;;;;2.50;1.70;;;5.20;99.90;;;;;;5029360;28;20045;-75
2021/12/05 06:38:31;;;;;;;3.45;1.60;;;5.20;99.90;;;;;;5035415;28;20508;-72
2021/12/05 06:41:07;;;;;;;4.22;2.00;;;5.20;99.90;;;;;;5050563;28;20420;-71
2021/12/05 06:48:37;;;;;;;3.55;1.85;;;5.10;99.90;;;;;;5036585;28;20045;-73
2021/12/05 06:51:04;;;;;;;2.03;1.70;;;5.10;99.90;;;;;;5032454;28;20052;-71
2021/12/05 06:53:31;;;;;;;4.80;1.90;;;5.10;99.90;;;;;;5048249;28;20464;-71
2021/12/05 06:55:58;;;;;;;3.88;1.50;;;5.00;99.90;;;;;;5050298;28;20048;-71
2021/12/05 06:58:25;;;;;;;3.33;1.70;;;5.10;99.90;;;;;;5050169;28;20053;-71
2021/12/05 07:00:54;;;;;;;3.50;1.88;;;5.00;99.90;;;;;;5053100;28;20055;-73
2021/12/05 07:03:21;;;;;;;2.60;1.67;;;5.00;99.90;;;;;;5061716;28;20147;-74
2021/12/05 07:06:10;;;;;;;3.10;2.08;;;5.00;99.90;;;;;;5050314;28;20051;-71
2021/12/05 07:08:40;;;;;;;5.68;1.95;;;5.00;99.90;;;;;;5048690;28;20524;-73
2021/12/05 07:40:29;;;;;;;2.35;1.88;;;4.90;99.90;;;;;;5033083;28;20762;-72
2021/12/05 07:43:02;;;;;;;4.40;2.20;;;4.90;99.90;;;;;;5048601;28;20045;-72
2021/12/05 07:45:41;;;;;;;2.88;2.00;;;4.90;99.90;;;;;;5033426;28;20056;-71
2021/12/05 07:48:12;;;;;;;3.13;2.20;;;4.80;99.90;;;;;;5048446;28;20067;-72
2021/12/05 07:50:50;;;;;;;4.05;2.28;;;4.80;99.90;;;;;;5049602;28;20485;-71
2021/12/05 07:54:09;;;;;;;3.33;2.17;;;4.80;99.90;;;;;;5045397;28;20071;-72
2021/12/05 07:56:14;;;;;;;3.95;2.45;;;4.70;99.90;;;;;;5044757;28;20404;-72
2021/12/05 08:14:20;;;;;;;2.90;1.90;;;4.70;99.90;;;;;;5047715;28;20049;-71
2021/12/05 08:15:14;;;;;;;6.45;2.08;;;4.70;99.90;;;;;;5046460;28;20052;-76
2021/12/05 08:17:49;;;;;;;2.55;2.10;;;4.80;99.90;;;;;;5032720;28;20053;-72
2021/12/05 08:20:16;;;;;;;4.38;2.28;;;4.80;99.90;;;;;;5032539;28;20064;-71
2021/12/05 08:22:43;;;;;;;4.63;3.13;;;4.80;99.90;;;;;;5048601;28;20051;-72
2021/12/05 08:25:12;;;;;;;3.53;2.30;;;4.70;99.90;;;;;;5042622;28;20132;-71
2021/12/05 08:27:44;;;;;;;5.87;2.73;;;4.80;99.90;;;;;;5049950;28;20469;-72
2021/12/05 08:30:16;;;;;;;5.35;2.47;;;4.80;99.90;;;;;;5048602;28;20293;-72
2021/12/05 08:36:15;;;;;;;4.03;2.63;;;4.80;99.90;;;;;;5043732;28;20427;-72
2021/12/05 08:41:29;;;;;;;5.13;2.60;;;4.80;99.90;;;;;;5039288;28;20140;-71
2021/12/05 08:44:27;;;;;;;4.50;2.50;;;4.90;99.90;;;;;;5043573;28;20049;-72
2021/12/05 10:08:59;;;;;;;4.47;2.00;;;5.60;99.90;;;;;;5050152;28;20045;-74
2021/12/05 10:11:36;;;;;;;5.20;2.25;;;5.60;99.90;;;;;;5034992;28;20139;-74
2021/12/05 10:37:19;;;;;;;5.63;3.08;;;5.80;99.90;;;;;;5045864;28;20394;-72
2021/12/05 10:39:46;;;;;;;4.53;3.03;;;5.80;99.90;;;;;;5028877;28;20361;-73
2021/12/05 10:42:40;;;;;;;6.43;2.83;;;5.80;99.90;;;;;;5033261;28;20059;-73
2021/12/05 10:45:09;;;;;;;4.28;2.28;;;5.90;99.90;;;;;;5049686;28;20353;-72
2021/12/05 10:47:40;;;;;;;3.42;2.03;;;5.90;99.90;;;;;;5029462;28;20049;-76
2021/12/05 10:50:29;;;;;;;4.97;2.30;;;5.80;99.90;;;;;;5044867;28;20037;-73
2021/12/05 10:53:19;;;;;;;3.63;2.03;;;5.80;99.90;;;;;;5050904;28;20053;-73
2021/12/05 10:55:54;;;;;;;4.25;2.20;;;5.80;99.90;;;;;;5048997;28;20093;-73
2021/12/05 10:58:23;;;;;;;3.10;2.15;;;5.80;99.90;;;;;;5017274;28;20093;-73
2021/12/05 11:01:08;;;;;;;3.95;2.00;;;5.80;99.90;;;;;;5049850;28;20502;-73
2021/12/05 11:03:36;;;;;;;3.88;2.33;;;5.80;99.90;;;;;;5032644;28;20399;-73
2021/12/05 11:06:21;;;;;;;3.33;2.25;;;5.80;99.90;;;;;;5032239;28;20056;-74
2021/12/05 11:08:53;;;;;;;4.07;2.25;;;5.90;99.90;;;;;;5049197;28;20081;-73
2021/12/05 11:11:20;;;;;;;3.58;2.22;;;5.80;99.90;;;;;;5047709;28;20060;-73
2021/12/05 11:13:47;;;;;;;4.13;2.35;;;5.90;99.90;;;;;;5031732;28;20117;-72
2021/12/05 11:16:40;;;;;;;4.95;2.53;;;5.90;99.90;;;;;;5048482;28;20053;-73
2021/12/05 11:19:15;;;;;;;4.63;2.28;;;5.90;99.90;;;;;;5050018;28;20071;-72
2021/12/05 11:21:47;;;;;;;4.03;2.08;;;5.90;99.90;;;;;;5032402;28;20048;-73
2021/12/05 11:24:20;;;;;;;5.57;2.65;;;5.90;99.90;;;;;;5048855;28;20060;-73
2021/12/05 11:27:32;;;;;;;4.80;2.72;;;5.90;99.90;;;;;;5013183;28;20445;-70
2021/12/05 11:30:10;;;;;;;3.75;2.70;;;6.00;99.90;;;;;;5039677;28;20051;-75
2021/12/05 11:32:40;;;;;;;3.55;2.20;;;6.00;99.90;;;;;;5053943;28;20519;-74
2021/12/05 11:35:13;;;;;;;3.10;2.30;;;6.10;99.90;;;;;;5048423;28;20374;-72
2021/12/05 11:37:59;;;;;;;3.42;2.13;;;6.10;99.90;;;;;;5049199;28;20134;-79
2021/12/05 11:40:42;;;;;;;5.22;2.33;;;6.10;99.90;;;;;;5030188;28;20053;-73
2021/12/05 11:43:11;;;;;;;7.32;2.50;;;6.10;99.90;;;;;;5039179;28;20045;-73
2021/12/05 11:46:01;;;;;;;5.95;2.72;;;6.10;99.90;;;;;;5028633;28;20060;-73
2021/12/05 11:48:33;;;;;;;8.20;3.63;;;6.10;99.90;;;;;;5048842;28;20056;-73
2021/12/05 11:51:02;;;;;;;7.20;3.17;;;6.10;99.90;;;;;;5049510;28;20412;-73
2021/12/05 11:53:34;;;;;;;11.93;5.38;;;6.20;99.90;;;;;;5048418;28;20064;-73
2021/12/05 11:56:01;;;;;;;8.30;3.08;;;6.20;99.90;;;;;;5047318;28;20041;-78
2021/12/05 11:58:29;;;;;;;6.55;3.05;;;6.30;99.90;;;;;;5031914;28;20052;-74
2021/12/05 12:01:08;;;;;;;6.03;3.28;;;6.30;99.90;;;;;;5047586;28;20049;-73
2021/12/05 12:03:35;;;;;;;4.20;2.40;;;6.30;99.90;;;;;;5037592;28;20055;-74
2021/12/05 12:06:03;;;;;;;6.43;2.72;;;6.30;99.90;;;;;;5048407;28;20099;-74
2021/12/05 12:08:30;;;;;;;6.22;2.70;;;6.30;99.90;;;;;;5050165;28;20064;-74
2021/12/05 12:10:59;;;;;;;4.68;2.45;;;6.30;99.90;;;;;;5053904;28;20102;-73
2021/12/05 12:13:40;;;;;;;4.53;2.60;;;6.30;99.90;;;;;;5054606;28;20064;-73
2021/12/05 12:16:12;;;;;;;3.90;2.28;;;6.30;99.90;;;;;;5049652;28;20079;-73
2021/12/05 12:18:40;;;;;;;5.82;2.33;;;6.30;99.90;;;;;;5053118;28;20079;-73
2021/12/05 12:21:11;;;;;;;5.32;2.78;;;6.30;99.90;;;;;;5015829;28;20045;-73
2021/12/05 12:23:39;;;;;;;4.15;2.50;;;6.30;99.90;;;;;;5051305;28;20083;-73
2021/12/05 12:26:06;;;;;;;5.43;3.55;;;6.30;99.90;;;;;;5052281;28;20044;-73
2021/12/05 12:28:35;;;;;;;5.22;2.90;;;6.30;99.90;;;;;;5036648;28;20044;-73
2021/12/05 12:31:31;;;;;;;4.95;2.70;;;6.30;99.90;;;;;;5033475;28;20446;-74
2021/12/05 12:34:08;;;;;;;5.97;3.83;;;6.30;99.90;;;;;;5054692;28;20048;-72
2021/12/05 12:36:39;;;;;;;5.32;2.72;;;6.30;99.90;;;;;;5059813;28;20056;-72
2021/12/05 12:39:21;;;;;;;5.32;3.10;;;6.20;99.90;;;;;;5038358;28;20114;-74
2021/12/05 12:42:13;;;;;;;4.68;2.83;;;6.20;99.90;;;;;;5046025;28;20049;-70
2021/12/05 12:45:03;;;;;;;5.70;3.22;;;6.10;99.90;;;;;;5061349;28;20166;-70
2021/12/05 12:47:42;;;;;;;5.78;3.35;;;6.20;99.90;;;;;;5037234;28;20063;-68
2021/12/05 12:50:51;;;;;;;254.20;129.00;;;6.20;99.90;;;;;;5050310;28;20052;-73
2021/12/05 12:53:21;;;;;;;101.80;62.90;;;6.20;99.90;;;;;;5028662;28;20056;-74
2021/12/05 12:55:56;;;;;;;;;;;6.30;99.90;;;;;;5052924;28;20115;-74
2021/12/05 12:58:49;;;;;;;15.27;10.57;;;6.20;99.90;;;;;;5081381;28;19929;-72
2021/12/05 13:04:36;;;;;;;6.53;4.53;;;6.30;99.90;;;;;;5051625;28;20041;-73
2021/12/05 13:10:08;;;;;;;32.28;23.45;;;6.20;99.90;;;;;;5048600;28;20052;-72
2021/12/05 13:12:41;;;;;;;74.82;50.58;;;6.30;99.90;;;;;;5049867;28;20041;-72
2021/12/05 13:15:16;;;;;;;350.08;236.82;;;6.50;99.90;;;;;;5051761;28;20510;-75
2021/12/05 13:17:48;;;;;;;8.70;6.35;;;6.50;99.90;;;;;;5053328;28;20049;-72
2021/12/05 13:20:27;;;;;;;6.55;4.20;;;6.30;99.90;;;;;;5026018;28;20053;-72
2021/12/05 13:22:59;;;;;;;7.20;4.30;;;6.30;99.90;;;;;;5035677;28;20053;-70
2021/12/05 13:25:26;;;;;;;5.28;3.83;;;6.30;99.90;;;;;;5050336;28;20781;-70
2021/12/05 13:27:53;;;;;;;5.45;3.97;;;6.30;99.90;;;;;;5028778;28;20045;-71
2021/12/05 13:30:31;;;;;;;10.65;4.78;;;6.30;99.90;;;;;;5048095;28;20143;-71
2021/12/05 13:33:34;;;;;;;8.25;4.20;;;6.30;99.90;;;;;;5017034;28;20049;-67
2021/12/05 13:36:28;;;;;;;7.63;4.97;;;6.30;99.90;;;;;;5043203;28;20064;-68
2021/12/05 13:38:55;;;;;;;7.20;4.25;;;6.30;99.90;;;;;;5062687;28;20041;-68
2021/12/05 13:41:22;;;;;;;16.40;11.98;;;6.30;99.90;;;;;;5041459;28;20053;-68
2021/12/05 13:44:01;;;;;;;70.22;49.72;;;6.30;99.90;;;;;;5049677;28;20188;-68
2021/12/05 13:46:35;;;;;;;10.20;7.93;;;6.30;99.90;;;;;;5033465;28;20513;-67
2021/12/05 13:49:23;;;;;;;18.20;10.35;;;6.30;99.90;;;;;;5049479;28;20094;-68
2021/12/05 13:51:50;;;;;;;14.15;9.98;;;6.40;99.90;;;;;;5050138;28;20472;-69
2021/12/05 13:54:24;;;;;;;9.27;5.75;;;6.30;99.90;;;;;;5031632;28;20622;-68
2021/12/05 13:57:06;;;;;;;6.47;5.10;;;6.30;99.90;;;;;;5032593;28;20049;-70
2021/12/05 13:59:34;;;;;;;8.93;5.25;;;6.30;99.90;;;;;;5049218;28;20405;-80
2021/12/05 14:02:02;;;;;;;9.30;5.20;;;6.40;99.90;;;;;;5030640;28;20056;-69
2021/12/05 14:04:34;;;;;;;9.73;5.40;;;6.40;99.90;;;;;;5047102;28;20053;-70
2021/12/05 14:07:04;;;;;;;5.43;4.82;;;6.40;99.90;;;;;;5015483;28;20043;-71
2021/12/05 14:09:31;;;;;;;;;;;6.40;99.90;;;;;;5027119;28;20551;-72
2021/12/05 14:12:19;;;;;;;7.25;5.88;;;6.40;99.90;;;;;;5055703;28;20000;-72
2021/12/05 14:14:53;;;;;;;27.75;8.73;;;6.30;99.90;;;;;;5053089;28;20060;-70
2021/12/05 14:17:25;;;;;;;8.15;6.13;;;6.30;99.90;;;;;;5061148;28;20128;-74
2021/12/05 14:20:00;;;;;;;14.60;8.30;;;6.30;99.90;;;;;;5047020;28;20041;-71
2021/12/05 14:22:29;;;;;;;10.93;6.35;;;6.40;99.90;;;;;;5045944;28;20123;-71
2021/12/05 14:24:58;;;;;;;19.73;7.95;;;6.30;99.90;;;;;;5045269;28;20067;-68
2021/12/05 14:27:35;;;;;;;11.20;7.17;;;6.30;99.90;;;;;;5045628;28;20590;-73
2021/12/05 14:30:10;;;;;;;10.05;6.15;;;6.30;99.90;;;;;;5047693;28;20420;-70
2021/12/05 14:32:38;;;;;;;12.60;7.85;;;6.30;99.90;;;;;;5046651;28;20041;-71
2021/12/05 14:35:12;;;;;;;10.20;6.55;;;6.30;99.90;;;;;;5048464;28;20047;-69
2021/12/05 14:37:41;;;;;;;12.13;8.25;;;6.30;99.90;;;;;;5048794;28;20150;-72
2021/12/05 14:40:14;;;;;;;8.10;6.43;;;6.40;99.90;;;;;;5047481;28;20040;-70
2021/12/05 14:42:43;;;;;;;8.32;6.57;;;6.30;99.90;;;;;;5049398;28;20435;-70
2021/12/05 14:45:13;;;;;;;14.88;6.43;;;6.40;99.90;;;;;;5031942;28;20052;-68
2021/12/05 14:47:40;;;;;;;;;;;6.40;99.90;;;;;;5049813;28;20052;-76
2021/12/05 14:50:12;;;;;;;289.58;195.27;;;6.40;99.90;;;;;;5048068;28;19925;-69
2021/12/05 14:52:41;;;;;;;84.50;58.80;;;6.50;99.90;;;;;;5048966;28;20061;-76
2021/12/05 14:55:11;;;;;;;66.20;38.97;;;6.50;99.90;;;;;;5050644;28;20048;-68
2021/12/05 14:57:58;;;;;;;107.30;75.25;;;6.60;99.90;;;;;;5045933;28;20100;-67
2021/12/05 15:00:28;;;;;;;12.23;7.93;;;6.60;99.90;;;;;;5046234;28;20087;-70
2021/12/05 15:03:03;;;;;;;11.15;6.38;;;6.50;99.90;;;;;;5050303;28;20051;-67
2021/12/05 15:05:31;;;;;;;8.57;5.13;;;6.60;99.90;;;;;;5033220;28;20084;-68
2021/12/05 15:08:17;;;;;;;9.50;5.57;;;6.60;99.90;;;;;;5048872;28;20060;-67
2021/12/05 15:10:45;;;;;;;9.60;5.90;;;6.60;99.90;;;;;;5050247;28;20528;-68
2021/12/05 15:13:13;;;;;;;8.45;5.47;;;6.60;99.90;;;;;;5050857;28;20051;-67
2021/12/05 15:15:39;;;;;;;12.73;7.22;;;6.60;99.90;;;;;;5049063;28;20154;-77
2021/12/05 15:18:14;;;;;;;9.43;5.40;;;6.60;99.90;;;;;;5053391;28;20057;-67
2021/12/05 15:20:41;;;;;;;11.82;5.57;;;6.60;99.90;;;;;;5048157;28;20064;-68
2021/12/05 15:23:09;;;;;;;10.85;5.90;;;6.60;99.90;;;;;;5050470;28;20055;-67
2021/12/05 15:25:38;;;;;;;10.40;4.83;;;6.60;99.90;;;;;;5049557;28;20140;-68
2021/12/05 15:28:06;;;;;;;7.78;4.68;;;6.60;99.90;;;;;;5049485;28;20765;-67
2021/12/05 15:30:35;;;;;;;6.93;3.47;;;6.60;99.90;;;;;;5048666;28;20045;-69
2021/12/05 15:33:07;;;;;;;7.40;3.13;;;6.60;99.90;;;;;;5047670;28;20052;-68
2021/12/05 15:35:35;;;;;;;37.13;25.60;;;6.60;99.90;;;;;;5045352;28;20049;-72
2021/12/05 15:38:04;;;;;;;69.93;37.65;;;6.60;99.90;;;;;;5071586;28;20099;-69
2021/12/05 15:40:32;;;;;;;32.55;19.15;;;6.60;99.90;;;;;;5049290;28;20683;-69
2021/12/05 15:43:04;;;;;;;4.88;2.80;;;6.60;99.90;;;;;;5049211;28;20041;-70
2021/12/05 15:45:32;;;;;;;10.20;4.10;;;6.60;99.90;;;;;;5048831;28;20059;-69
2021/12/05 15:47:59;;;;;;;9.00;3.33;;;6.60;99.90;;;;;;5050654;28;20465;-69
2021/12/05 15:50:27;;;;;;;6.32;2.97;;;6.70;99.90;;;;;;5065828;28;20048;-71
2021/12/05 15:53:05;;;;;;;12.20;2.88;;;6.60;99.90;;;;;;5038787;28;20405;-70
2021/12/05 15:55:57;;;;;;;7.07;2.95;;;6.70;99.90;;;;;;5053296;28;20052;-69
2021/12/05 15:58:32;;;;;;;6.07;2.17;;;6.70;99.90;;;;;;5053165;28;20439;-70
2021/12/05 16:01:21;;;;;;;5.72;3.15;;;6.60;99.90;;;;;;5048372;28;20056;-70
2021/12/05 16:03:56;;;;;;;7.40;2.90;;;6.60;99.90;;;;;;5043380;28;20105;-69
2021/12/05 16:06:30;;;;;;;10.95;4.93;;;6.60;99.90;;;;;;5035941;28;20056;-70
2021/12/05 16:08:57;;;;;;;60.47;34.42;;;6.60;99.90;;;;;;5053129;28;20045;-70
2021/12/05 16:11:24;;;;;;;12.85;4.65;;;6.70;99.90;;;;;;5051641;28;20068;-73
2021/12/05 16:13:52;;;;;;;4.28;2.60;;;6.70;99.90;;;;;;5039760;28;20045;-70
2021/12/05 16:16:27;;;;;;;7.25;2.30;;;6.60;99.90;;;;;;5053649;28;20053;-73
2021/12/05 16:18:56;;;;;;;4.55;2.42;;;6.60;99.90;;;;;;5052999;28;20088;-70
2021/12/05 16:21:28;;;;;;;29.73;18.40;;;6.50;99.90;;;;;;5052501;28;20103;-68
2021/12/05 16:24:14;;;;;;;15.60;7.43;;;6.50;99.90;;;;;;5052259;28;20049;-69
2021/12/05 16:26:42;;;;;;;5.15;2.40;;;6.40;99.90;;;;;;5051592;28;20473;-69
2021/12/05 16:29:15;;;;;;;13.18;2.55;;;6.40;99.90;;;;;;5022025;28;20053;-69
2021/12/05 16:31:44;;;;;;;6.97;2.00;;;6.30;99.90;;;;;;5049813;28;20139;-69
2021/12/05 16:34:17;;;;;;;11.82;3.92;;;6.30;99.90;;;;;;5051045;28;20553;-69
2021/12/05 16:36:47;;;;;;;6.60;2.35;;;6.30;99.90;;;;;;5052222;28;20091;-69
2021/12/05 16:39:15;;;;;;;;;;;6.20;99.90;;;;;;5035968;28;20098;-69
2021/12/05 16:41:51;;;;;;;4.57;1.98;;;6.20;99.90;;;;;;5085023;28;19924;-69
2021/12/05 16:44:20;;;;;;;8.32;2.35;;;6.20;99.90;;;;;;5051804;28;20453;-69
2021/12/05 16:46:48;;;;;;;8.32;2.65;;;6.20;99.90;;;;;;5033987;28;20084;-69
2021/12/05 16:49:18;;;;;;;9.90;2.42;;;6.30;99.90;;;;;;5052783;28;20041;-70
2021/12/05 16:52:00;;;;;;;5.55;3.30;;;6.30;99.90;;;;;;5051918;28;20488;-69
2021/12/05 16:54:53;;;;;;;11.35;2.83;;;6.20;99.90;;;;;;5034181;28;20480;-69
2021/12/05 16:57:39;;;;;;;7.75;2.72;;;6.20;99.90;;;;;;5052595;28;20136;-71
2021/12/05 17:00:18;;;;;;;6.97;2.63;;;6.20;99.90;;;;;;5031649;28;20049;-69
2021/12/05 17:02:53;;;;;;;11.13;3.13;;;6.20;99.90;;;;;;5050071;28;20056;-72
2021/12/05 17:05:28;;;;;;;11.02;2.63;;;6.20;99.90;;;;;;5066581;28;20061;-70
2021/12/05 17:10:53;;;;;;;21.75;13.02;;;6.20;99.90;;;;;;5047611;28;20045;-71
2021/12/05 17:13:24;;;;;;;17.52;10.07;;;6.30;99.90;;;;;;5051664;28;20079;-70
2021/12/05 17:16:04;;;;;;;8.02;2.92;;;6.30;99.90;;;;;;5051510;28;20481;-70
2021/12/05 17:18:31;;;;;;;7.20;2.13;;;6.20;99.90;;;;;;5050022;28;20130;-70
2021/12/05 17:21:04;;;;;;;6.78;2.50;;;6.20;99.90;;;;;;5051439;28;20041;-70
2021/12/05 17:23:38;;;;;;;9.73;2.80;;;6.20;99.90;;;;;;5050682;28;20404;-70
2021/12/05 17:26:57;;;;;;;7.95;2.38;;;6.30;99.90;;;;;;5052427;28;20068;-70
2021/12/05 17:29:31;;;;;;;9.63;3.45;;;6.30;99.90;;;;;;5011982;28;20062;-70
2021/12/05 17:32:16;;;;;;;8.13;2.58;;;6.30;99.90;;;;;;5063807;28;20236;-70
2021/12/05 17:34:44;;;;;;;8.05;2.28;;;6.30;99.90;;;;;;5033079;28;20045;-69
2021/12/05 17:37:13;;;;;;;12.57;2.60;;;6.30;99.90;;;;;;5046342;28;20493;-70
2021/12/05 17:39:44;;;;;;;9.80;2.70;;;6.30;99.90;;;;;;5049436;28;20092;-69
2021/12/05 17:42:14;;;;;;;12.80;3.75;;;6.30;99.90;;;;;;5051807;28;20056;-69
2021/12/05 17:44:42;;;;;;;10.52;3.72;;;6.30;99.90;;;;;;5049094;28;20053;-70
2021/12/05 17:47:10;;;;;;;10.50;3.50;;;6.30;99.90;;;;;;5052253;28;20060;-69
2021/12/05 17:49:39;;;;;;;7.97;2.70;;;6.30;99.90;;;;;;5049207;28;20056;-69
2021/12/05 17:52:07;;;;;;;8.20;2.97;;;6.30;99.90;;;;;;5050927;28;20515;-69
2021/12/05 17:54:40;;;;;;;8.70;2.42;;;6.20;99.90;;;;;;5030647;28;20298;-69
2021/12/05 17:57:11;;;;;;;9.63;2.80;;;6.20;99.90;;;;;;5031501;28;20049;-69
2021/12/05 18:00:33;;;;;;;4.88;2.38;;;6.10;99.90;;;;;;5051590;28;20461;-74
2021/12/05 18:02:53;;;;;;;8.45;2.45;;;6.10;99.90;;;;;;5048114;28;20052;-68
2021/12/05 18:05:25;;;;;;;11.45;4.30;;;6.10;99.90;;;;;;5039842;28;20417;-69
2021/12/05 18:07:54;;;;;;;10.95;2.85;;;6.10;99.90;;;;;;5049894;28;20056;-68
2021/12/05 18:10:22;;;;;;;9.63;2.50;;;6.20;99.90;;;;;;5049077;28;20060;-67
2021/12/05 18:12:50;;;;;;;7.07;2.55;;;6.20;99.90;;;;;;5050169;28;20045;-70
2021/12/05 18:15:45;;;;;;;6.95;2.50;;;6.20;99.90;;;;;;5049351;28;20500;-70
2021/12/05 18:18:13;;;;;;;10.88;3.47;;;6.20;99.90;;;;;;5052644;28;20067;-73
2021/12/05 18:20:40;;;;;;;5.50;2.60;;;6.20;99.90;;;;;;5069587;28;20052;-64
2021/12/05 18:23:07;;;;;;;11.77;3.47;;;6.20;99.90;;;;;;5066701;28;20507;-68
2021/12/05 18:25:35;;;;;;;172.75;110.80;;;6.20;99.90;;;;;;5032520;28;20052;-70
2021/12/05 18:28:02;;;;;;;19.85;11.27;;;6.20;99.90;;;;;;5049589;28;20047;-67
2021/12/05 18:30:29;;;;;;;8.13;4.43;;;6.20;99.90;;;;;;5048739;28;20057;-67
2021/12/05 18:32:57;;;;;;;8.07;3.13;;;6.10;99.90;;;;;;5033510;28;20451;-67
2021/12/05 18:35:30;;;;;;;8.63;2.97;;;6.10;99.90;;;;;;5049514;28;20049;-67
2021/12/05 18:38:02;;;;;;;5.72;2.60;;;6.10;99.90;;;;;;5049250;28;20041;-67
2021/12/05 18:40:30;;;;;;;7.72;2.70;;;6.10;99.90;;;;;;5049567;28;20124;-70
2021/12/05 18:42:59;;;;;;;11.68;4.05;;;6.10;99.90;;;;;;5050320;28;20240;-77
2021/12/05 18:45:29;;;;;;;14.25;4.82;;;6.00;99.90;;;;;;5049756;28;20400;-72
2021/12/05 18:47:56;;;;;;;18.30;10.05;;;6.00;99.90;;;;;;5030968;28;20081;-67
2021/12/05 18:50:24;;;;;;;8.90;3.30;;;6.10;99.90;;;;;;5048733;28;20056;-67